createdAt,value
2018-10-21T00:02:03.236Z,56.58
2018-10-21T00:04:30.242Z,57.22
2018-10-21T00:07:01.847Z,58.18
2018-10-21T00:09:30.101Z,59.45
2018-10-21T00:14:29.201Z,57.19
2018-10-21T00:16:57.193Z,56.38
2018-10-21T00:19:24.893Z,56.63
2018-10-21T00:21:52.729Z,58.10
2018-10-21T00:24:20.257Z,59.18
2018-10-21T00:26:50.288Z,57.20
2018-10-21T00:29:17.801Z,58.13
2018-10-21T00:31:46.617Z,57.51
2018-10-21T00:34:14.022Z,58.00
2018-10-21T00:36:42.348Z,58.32
2018-10-21T00:39:11.329Z,58.54
2018-10-21T00:41:40.388Z,57.20
2018-10-21T00:44:07.129Z,57.02
2018-10-21T00:46:35.570Z,57.37
2018-10-21T00:49:03.685Z,57.06
2018-10-21T00:51:30.338Z,58.19
2018-10-21T00:53:58.780Z,57.74
2018-10-21T00:56:28.106Z,57.61
2018-10-21T00:58:56.087Z,56.48
2018-10-21T01:01:22.767Z,58.05
2018-10-21T01:03:50.939Z,57.76
2018-10-21T01:06:19.774Z,58.62
2018-10-21T01:08:47.574Z,59.29
2018-10-21T01:11:15.859Z,57.46
2018-10-21T01:13:44.810Z,56.43
2018-10-21T01:16:11.581Z,55.64
2018-10-21T01:18:39.278Z,55.97
2018-10-21T01:21:06.830Z,55.61
2018-10-21T01:23:34.636Z,56.65
2018-10-21T01:26:01.799Z,55.97
2018-10-21T01:28:30.341Z,56.54
2018-10-21T01:30:58.718Z,56.27
2018-10-21T01:33:25.536Z,56.35
2018-10-21T01:35:56.240Z,56.57
2018-10-21T01:38:24.026Z,57.98
2018-10-21T01:40:52.502Z,58.04
2018-10-21T01:43:23.337Z,58.52
2018-10-21T01:45:52.110Z,57.99
2018-10-21T01:48:20.510Z,57.40
2018-10-21T01:53:21.363Z,56.33
2018-10-21T01:55:49.685Z,55.84
2018-10-21T01:58:17.202Z,55.32
2018-10-21T02:00:48.805Z,54.92
2018-10-21T02:03:17.677Z,54.52
2018-10-21T02:05:44.923Z,53.77
2018-10-21T02:08:12.531Z,54.38
2018-10-21T02:10:39.646Z,54.81
2018-10-21T02:13:08.709Z,54.83
2018-10-21T02:15:35.505Z,53.92
2018-10-21T02:18:03.314Z,54.88
2018-10-21T02:20:30.445Z,55.23
2018-10-21T02:22:58.986Z,55.49
2018-10-21T02:25:26.148Z,56.53
2018-10-21T02:27:53.904Z,56.41
2018-10-21T02:30:21.417Z,56.22
2018-10-21T02:32:49.876Z,56.74
2018-10-21T02:35:18.244Z,57.31
2018-10-21T02:37:44.932Z,58.36
2018-10-21T02:40:15.162Z,57.11
2018-10-21T02:42:42.566Z,56.04
2018-10-21T02:45:10.680Z,56.46
2018-10-21T02:47:38.205Z,56.13
2018-10-21T02:50:05.329Z,56.54
2018-10-21T02:52:32.633Z,56.78
2018-10-21T02:55:00.700Z,56.19
2018-10-21T02:57:28.187Z,57.30
2018-10-21T02:59:55.358Z,56.87
2018-10-21T03:02:22.898Z,56.35
2018-10-21T03:04:51.429Z,54.98
2018-10-21T03:07:24.043Z,55.11
2018-10-21T03:09:52.975Z,56.36
2018-10-21T03:12:19.837Z,55.71
2018-10-21T03:14:47.903Z,56.04
2018-10-21T03:17:15.120Z,56.08
2018-10-21T03:19:42.932Z,56.06
2018-10-21T03:22:11.065Z,55.37
2018-10-21T03:24:39.252Z,53.84
2018-10-21T03:27:05.860Z,54.17
2018-10-21T03:29:32.506Z,55.08
2018-10-21T03:31:59.409Z,53.95
2018-10-21T03:34:26.397Z,53.38
2018-10-21T03:36:53.892Z,53.46
2018-10-21T03:39:20.324Z,53.00
2018-10-21T03:41:47.632Z,53.91
2018-10-21T03:44:15.198Z,54.79
2018-10-21T03:46:42.578Z,55.63
2018-10-21T03:49:09.941Z,55.74
2018-10-21T03:51:36.424Z,54.55
2018-10-21T03:54:03.951Z,53.09
2018-10-21T03:59:03.941Z,54.89
2018-10-21T04:01:30.543Z,55.64
2018-10-21T04:03:58.781Z,54.26
2018-10-21T04:06:26.382Z,53.44
2018-10-21T04:08:53.537Z,53.61
2018-10-21T04:11:20.813Z,54.46
2018-10-21T04:13:47.909Z,55.50
2018-10-21T04:16:15.212Z,55.50
2018-10-21T04:18:41.833Z,55.96
2018-10-21T04:21:09.182Z,54.53
2018-10-21T04:23:35.653Z,53.18
2018-10-21T04:26:02.963Z,54.21
2018-10-21T04:28:31.024Z,55.21
2018-10-21T04:30:58.537Z,55.70
2018-10-21T04:33:25.519Z,55.73
2018-10-21T04:35:53.013Z,55.38
2018-10-21T04:38:20.290Z,54.93
2018-10-21T04:40:47.437Z,54.05
2018-10-21T04:43:14.009Z,54.65
2018-10-21T04:45:40.806Z,54.59
2018-10-21T04:48:07.413Z,54.51
2018-10-21T04:50:35.347Z,54.77
2018-10-21T04:53:01.955Z,55.55
2018-10-21T04:55:29.743Z,55.45
2018-10-21T04:57:57.299Z,55.68
2018-10-21T05:00:24.083Z,56.48
2018-10-21T05:02:50.671Z,56.11
2018-10-21T05:05:18.949Z,55.49
2018-10-21T05:07:46.790Z,55.53
2018-10-21T05:10:14.204Z,55.62
2018-10-21T05:12:41.685Z,55.34
2018-10-21T05:15:09.314Z,55.72
2018-10-21T05:17:36.415Z,55.31
2018-10-21T05:20:04.660Z,55.63
2018-10-21T05:22:31.174Z,55.81
2018-10-21T05:24:59.008Z,55.64
2018-10-21T05:27:27.651Z,56.80
2018-10-21T05:29:54.287Z,57.77
2018-10-21T05:32:20.783Z,57.83
2018-10-21T05:37:23.072Z,58.07
2018-10-21T05:39:49.854Z,57.76
2018-10-21T05:42:16.300Z,57.88
2018-10-21T05:44:43.469Z,58.24
2018-10-21T05:47:10.778Z,57.34
2018-10-21T05:49:37.885Z,57.48
2018-10-21T05:52:05.170Z,57.30
2018-10-21T05:54:32.955Z,58.30
2018-10-21T05:57:00.195Z,57.07
2018-10-21T05:59:26.719Z,57.20
2018-10-21T06:01:54.361Z,56.96
2018-10-21T06:04:21.733Z,57.82
2018-10-21T06:06:48.966Z,58.22
2018-10-21T06:09:16.287Z,56.96
2018-10-21T06:11:43.605Z,56.32
2018-10-21T06:14:10.700Z,57.05
2018-10-21T06:16:37.165Z,56.97
2018-10-21T06:19:04.689Z,57.08
2018-10-21T06:21:31.254Z,56.61
2018-10-21T06:23:58.922Z,56.90
2018-10-21T06:26:26.648Z,55.83
2018-10-21T06:28:53.995Z,56.10
2018-10-21T06:31:22.248Z,54.83
2018-10-21T06:33:49.274Z,53.85
2018-10-21T06:36:17.049Z,53.11
2018-10-21T06:38:43.812Z,53.81
2018-10-21T06:41:11.781Z,53.69
2018-10-21T06:43:38.949Z,52.54
2018-10-21T06:46:05.397Z,53.23
2018-10-21T06:48:32.332Z,53.19
2018-10-21T06:50:59.172Z,53.14
2018-10-21T06:53:25.797Z,53.46
2018-10-21T06:55:52.264Z,53.56
2018-10-21T06:58:18.794Z,54.05
2018-10-21T07:00:45.335Z,53.22
2018-10-21T07:03:12.770Z,54.34
2018-10-21T07:05:39.663Z,54.90
2018-10-21T07:08:06.868Z,55.70
2018-10-21T07:10:34.274Z,55.84
2018-10-21T07:13:01.549Z,55.21
2018-10-21T07:15:30.198Z,54.44
2018-10-21T07:17:56.871Z,54.34
2018-10-21T07:20:23.523Z,55.19
2018-10-21T07:22:50.625Z,55.19
2018-10-21T07:25:17.757Z,53.89
2018-10-21T07:27:44.946Z,51.53
2018-10-21T07:30:11.408Z,50.87
2018-10-21T07:32:39.420Z,50.80
2018-10-21T07:35:05.905Z,50.40
2018-10-21T07:37:32.368Z,49.74
2018-10-21T07:39:59.364Z,51.38
2018-10-21T07:42:26.057Z,52.87
2018-10-21T07:44:53.480Z,54.11
2018-10-21T07:47:20.909Z,54.08
2018-10-21T07:49:47.471Z,53.85
2018-10-21T07:52:14.066Z,54.32
2018-10-21T07:54:41.665Z,53.82
2018-10-21T07:57:08.216Z,51.68
2018-10-21T07:59:35.365Z,50.84
2018-10-21T08:02:01.815Z,51.88
2018-10-21T08:04:29.097Z,49.72
2018-10-21T08:06:56.216Z,50.31
2018-10-21T08:09:22.723Z,45.87
2018-10-21T08:11:49.617Z,45.95
2018-10-21T08:14:16.908Z,46.53
2018-10-21T08:16:44.516Z,47.50
2018-10-21T08:19:15.512Z,45.90
2018-10-21T08:21:42.763Z,46.65
2018-10-21T08:24:11.381Z,44.29
2018-10-21T08:26:38.582Z,42.12
2018-10-21T08:29:05.134Z,43.62
2018-10-21T08:31:33.350Z,44.37
2018-10-21T08:34:00.480Z,40.51
2018-10-21T08:36:27.869Z,40.73
2018-10-21T08:38:55.884Z,40.17
2018-10-21T08:41:22.447Z,42.56
2018-10-21T08:43:49.249Z,43.04
2018-10-21T08:46:15.776Z,37.67
2018-10-21T08:48:42.440Z,39.01
2018-10-21T08:51:09.590Z,40.28
2018-10-21T08:53:36.741Z,37.23
2018-10-21T08:56:04.129Z,39.43
2018-10-21T09:10:24.263Z,35.66
2018-10-21T09:12:52.608Z,36.90
2018-10-21T09:15:19.742Z,34.47
2018-10-21T09:17:46.752Z,36.07
2018-10-21T09:20:14.244Z,35.63
2018-10-21T09:25:15.631Z,35.47
2018-10-21T09:27:42.955Z,35.66
2018-10-21T09:30:09.717Z,35.92
2018-10-21T09:32:36.252Z,36.80
2018-10-21T09:35:03.917Z,36.35
2018-10-21T09:37:31.228Z,35.71
2018-10-21T09:42:29.596Z,35.15
2018-10-21T09:44:57.312Z,36.76
2018-10-21T09:47:25.791Z,36.61
2018-10-21T09:49:53.756Z,34.74
2018-10-21T09:52:22.074Z,35.68
2018-10-21T09:54:49.898Z,36.22
2018-10-21T09:57:17.073Z,35.43
2018-10-21T09:59:45.134Z,35.05
2018-10-21T10:02:14.141Z,36.28
2018-10-21T10:04:43.169Z,34.93
2018-10-21T10:07:09.802Z,34.40
2018-10-21T10:09:38.340Z,34.67
2018-10-21T10:12:07.168Z,35.20
2018-10-21T10:14:35.436Z,34.23
2018-10-21T10:17:03.304Z,35.50
2018-10-21T10:19:31.346Z,34.00
2018-10-21T10:21:59.028Z,33.62
2018-10-21T10:24:28.799Z,35.00
2018-10-21T10:26:57.534Z,34.36
2018-10-21T10:29:27.265Z,34.75
2018-10-21T10:31:56.407Z,34.91
2018-10-21T10:34:23.918Z,34.51
2018-10-21T10:36:50.826Z,34.38
2018-10-21T10:39:17.877Z,35.49
2018-10-21T10:41:46.141Z,34.10
2018-10-21T10:44:14.061Z,34.18
2018-10-21T10:46:42.502Z,34.37
2018-10-21T10:51:43.151Z,34.25
2018-10-21T10:54:11.435Z,35.89
2018-10-21T10:56:38.158Z,35.74
2018-10-21T10:59:05.730Z,35.93
2018-10-21T11:01:33.805Z,35.31
2018-10-21T11:04:01.094Z,34.16
2018-10-21T11:06:29.442Z,33.90
2018-10-21T11:08:56.398Z,34.49
2018-10-21T11:11:24.960Z,35.24
2018-10-21T11:13:54.568Z,34.58
2018-10-21T11:16:22.761Z,35.64
2018-10-21T11:18:49.988Z,35.73
2018-10-21T11:21:17.718Z,34.82
2018-10-21T11:23:45.323Z,33.97
2018-10-21T11:26:13.052Z,34.38
2018-10-21T11:28:40.848Z,36.00
2018-10-21T11:31:08.384Z,33.54
2018-10-21T11:33:37.294Z,33.99
2018-10-21T11:38:36.790Z,33.61
2018-10-21T11:41:04.712Z,32.60
2018-10-21T11:43:33.420Z,32.64
2018-10-21T11:46:01.180Z,32.97
2018-10-21T11:48:29.524Z,32.64
2018-10-21T11:50:56.954Z,32.06
2018-10-21T11:53:23.505Z,32.46
2018-10-21T11:55:51.998Z,32.32
2018-10-21T11:58:19.876Z,31.05
2018-10-21T12:00:46.967Z,33.02
2018-10-21T12:03:15.089Z,33.31
2018-10-21T12:05:44.200Z,32.10
2018-10-21T12:08:13.805Z,31.48
2018-10-21T12:10:42.100Z,32.08
2018-10-21T12:13:10.209Z,32.57
2018-10-21T12:18:11.033Z,33.62
2018-10-21T12:20:38.975Z,33.29
2018-10-21T12:23:06.323Z,33.46
2018-10-21T12:25:35.360Z,34.37
2018-10-21T12:28:02.222Z,33.53
2018-10-21T12:30:28.850Z,34.82
2018-10-21T12:32:57.001Z,34.09
2018-10-21T12:35:24.157Z,33.65
2018-10-21T12:37:51.384Z,34.08
2018-10-21T12:40:19.651Z,33.84
2018-10-21T12:42:48.938Z,33.19
2018-10-21T12:45:17.186Z,32.88
2018-10-21T12:47:43.812Z,33.64
2018-10-21T12:50:11.321Z,32.70
2018-10-21T12:52:39.127Z,32.38
2018-10-21T12:57:38.964Z,33.31
2018-10-21T13:00:09.951Z,32.59
2018-10-21T13:02:37.979Z,32.69
2018-10-21T13:05:05.310Z,33.16
2018-10-21T13:07:31.941Z,31.53
2018-10-21T13:09:59.398Z,32.30
2018-10-21T13:12:29.238Z,33.87
2018-10-21T13:15:00.035Z,33.38
2018-10-21T13:17:27.442Z,32.63
2018-10-21T13:19:53.948Z,34.03
2018-10-21T13:22:23.691Z,33.27
2018-10-21T13:24:54.473Z,33.61
2018-10-21T13:27:23.237Z,35.85
2018-10-21T13:29:49.939Z,34.98
2018-10-21T13:32:16.979Z,34.36
2018-10-21T13:34:44.801Z,34.51
2018-10-21T13:37:12.225Z,33.92
2018-10-21T13:39:41.230Z,34.89
2018-10-21T13:42:09.622Z,34.33
2018-10-21T13:44:37.113Z,35.27
2018-10-21T13:47:04.085Z,34.78
2018-10-21T13:49:32.236Z,35.38
2018-10-21T13:52:01.663Z,35.80
2018-10-21T13:54:29.840Z,36.15
2018-10-21T13:56:56.645Z,35.24
2018-10-21T13:59:24.073Z,34.89
2018-10-21T14:01:51.902Z,35.69
2018-10-21T14:06:51.928Z,37.25
2018-10-21T14:09:19.419Z,36.92
2018-10-21T14:14:19.296Z,37.09
2018-10-21T14:16:46.966Z,36.87
2018-10-21T14:19:13.846Z,37.15
2018-10-21T14:21:40.935Z,36.60
2018-10-21T14:24:08.552Z,36.25
2018-10-21T14:26:36.847Z,35.47
2018-10-21T14:29:04.612Z,33.93
2018-10-21T14:31:32.953Z,34.74
2018-10-21T14:33:59.583Z,36.66
2018-10-21T14:36:27.054Z,37.20
2018-10-21T14:38:55.287Z,35.60
2018-10-21T14:41:23.017Z,36.09
2018-10-21T14:43:50.335Z,37.47
2018-10-21T14:46:18.597Z,36.21
2018-10-21T14:48:45.633Z,35.99
2018-10-21T14:51:12.987Z,35.14
2018-10-21T14:53:40.383Z,36.46
2018-10-21T14:56:07.783Z,36.64
2018-10-21T14:58:36.600Z,36.08
2018-10-21T15:01:05.381Z,37.00
2018-10-21T15:03:32.470Z,36.22
2018-10-21T15:06:00.789Z,36.45
2018-10-21T15:08:27.683Z,36.69
2018-10-21T15:10:56.872Z,35.87
2018-10-21T15:13:25.022Z,36.97
2018-10-21T15:15:52.667Z,37.08
2018-10-21T15:18:20.118Z,36.86
2018-10-21T15:20:47.874Z,38.04
2018-10-21T15:23:15.148Z,36.61
2018-10-21T15:25:43.557Z,38.01
2018-10-21T15:28:10.988Z,38.00
2018-10-21T15:30:39.086Z,37.86
2018-10-21T15:33:07.165Z,37.94
2018-10-21T15:35:38.254Z,37.92
2018-10-21T15:38:07.173Z,37.57
2018-10-21T15:40:35.203Z,37.91
2018-10-21T15:43:02.402Z,37.91
2018-10-21T15:45:30.178Z,38.06
2018-10-21T15:47:58.083Z,38.82
2018-10-21T15:50:25.583Z,38.84
2018-10-21T15:52:52.853Z,38.40
2018-10-21T15:55:20.612Z,39.34
2018-10-21T15:57:48.469Z,40.03
2018-10-21T16:00:16.370Z,38.77
2018-10-21T16:02:43.923Z,39.64
2018-10-21T16:05:11.133Z,38.97
2018-10-21T16:07:37.887Z,40.50
2018-10-21T16:10:06.618Z,41.37
2018-10-21T16:12:33.644Z,41.82
2018-10-21T16:15:00.177Z,40.51
2018-10-21T16:17:27.609Z,41.14
2018-10-21T16:19:54.450Z,41.24
2018-10-21T16:22:22.761Z,42.01
2018-10-21T16:24:50.498Z,42.78
2018-10-21T16:27:17.752Z,43.86
2018-10-21T16:29:45.493Z,43.82
2018-10-21T16:32:13.062Z,43.90
2018-10-21T16:34:41.141Z,44.15
2018-10-21T16:37:09.103Z,43.16
2018-10-21T16:39:36.510Z,43.15
2018-10-21T16:42:04.894Z,43.45
2018-10-21T16:44:31.509Z,43.95
2018-10-21T16:46:59.826Z,44.21
2018-10-21T16:49:27.686Z,43.79
2018-10-21T16:51:54.197Z,45.91
2018-10-21T16:54:21.304Z,45.71
2018-10-21T16:56:50.699Z,47.43
2018-10-21T16:59:18.071Z,47.83
2018-10-21T17:01:45.275Z,47.71
2018-10-21T17:04:12.766Z,48.96
2018-10-21T17:06:41.375Z,49.38
2018-10-21T17:09:08.896Z,49.50
2018-10-21T17:11:37.048Z,49.63
2018-10-21T17:14:04.312Z,49.19
2018-10-21T17:16:31.469Z,49.32
2018-10-21T17:18:59.841Z,48.27
2018-10-21T17:21:28.992Z,48.61
2018-10-21T17:23:56.846Z,50.11
2018-10-21T17:26:24.104Z,50.67
2018-10-21T17:28:51.567Z,50.40
2018-10-21T17:31:18.747Z,49.88
2018-10-21T17:33:47.970Z,49.29
2018-10-21T17:36:14.479Z,49.35
2018-10-21T17:38:42.499Z,49.83
2018-10-21T17:41:11.341Z,50.73
2018-10-21T17:43:39.417Z,51.02
2018-10-21T17:46:08.906Z,51.29
2018-10-21T17:48:37.827Z,51.65
2018-10-21T17:51:05.746Z,52.00
2018-10-21T17:53:35.475Z,53.12
2018-10-21T17:56:05.630Z,53.18
2018-10-21T17:58:34.190Z,52.90
2018-10-21T18:01:01.920Z,53.84
2018-10-21T18:03:30.397Z,53.08
2018-10-21T18:05:57.323Z,52.36
2018-10-21T18:08:25.566Z,52.15
2018-10-21T18:10:53.933Z,52.27
2018-10-21T18:13:20.686Z,51.43
2018-10-21T18:15:48.566Z,52.07
2018-10-21T18:18:15.733Z,52.07
2018-10-21T18:20:43.833Z,51.73
2018-10-21T18:23:11.949Z,51.71
2018-10-21T18:25:41.266Z,51.50
2018-10-21T18:30:41.411Z,50.93
2018-10-21T18:33:10.715Z,51.76
2018-10-21T18:35:37.862Z,52.08
2018-10-21T18:38:05.287Z,51.83
2018-10-21T18:40:32.402Z,52.08
2018-10-21T18:43:00.745Z,51.84
2018-10-21T18:45:29.324Z,51.56
2018-10-21T18:47:56.825Z,52.10
2018-10-21T18:50:23.552Z,52.06
2018-10-21T18:55:23.548Z,52.29
2018-10-21T18:57:52.555Z,53.21
2018-10-21T19:00:21.870Z,53.01
2018-10-21T19:02:50.166Z,52.71
2018-10-21T19:05:18.263Z,52.72
2018-10-21T19:07:47.171Z,52.55
2018-10-21T19:10:17.504Z,52.99
2018-10-21T19:12:44.795Z,52.92
2018-10-21T19:15:13.681Z,53.90
2018-10-21T19:17:41.724Z,53.58
2018-10-21T19:20:09.262Z,53.61
2018-10-21T19:22:35.775Z,53.16
2018-10-21T19:25:03.743Z,53.18
2018-10-21T19:27:31.035Z,53.46
2018-10-21T19:29:58.536Z,54.11
2018-10-21T19:32:29.073Z,53.41
2018-10-21T19:34:57.099Z,53.50
2018-10-21T19:37:24.981Z,54.08
2018-10-21T19:39:52.943Z,54.45
2018-10-21T19:42:20.785Z,54.34
2018-10-21T19:44:52.777Z,53.97
2018-10-21T19:47:20.794Z,53.87
2018-10-21T19:49:49.070Z,53.79
2018-10-21T19:52:16.106Z,54.39
2018-10-21T19:54:46.363Z,54.12
2018-10-21T19:57:15.192Z,53.12
2018-10-21T20:02:14.250Z,54.95
2018-10-21T20:04:45.491Z,54.33
2018-10-21T20:07:12.761Z,55.70
2018-10-21T20:09:41.673Z,55.41
2018-10-21T20:12:09.237Z,55.40
2018-10-21T20:14:37.782Z,54.30
2018-10-21T20:17:04.349Z,55.06
2018-10-21T20:19:31.352Z,55.49
2018-10-21T20:21:58.855Z,55.47
2018-10-21T20:24:27.667Z,54.27
2018-10-21T20:26:55.580Z,55.17
2018-10-21T20:29:23.939Z,54.80
2018-10-21T20:31:53.063Z,54.97
2018-10-21T20:34:21.126Z,55.54
2018-10-21T20:36:49.236Z,55.14
2018-10-21T20:39:17.837Z,54.66
2018-10-21T20:41:44.383Z,53.30
2018-10-21T20:44:12.861Z,55.02
2018-10-21T20:46:39.714Z,54.76
2018-10-21T20:49:07.218Z,55.14
2018-10-21T20:51:33.830Z,55.19
2018-10-21T20:54:02.549Z,54.76
2018-10-21T20:56:31.658Z,55.14
2018-10-21T20:59:00.284Z,54.83
2018-10-21T21:01:28.860Z,54.14
2018-10-21T21:03:57.526Z,55.17
2018-10-21T21:06:25.537Z,54.74
2018-10-21T21:08:52.961Z,54.61
2018-10-21T21:11:20.644Z,55.35
2018-10-21T21:13:48.159Z,55.05
2018-10-21T21:16:15.506Z,55.36
2018-10-21T21:18:42.905Z,55.45
2018-10-21T21:21:11.160Z,55.49
2018-10-21T21:23:38.598Z,55.17
2018-10-21T21:26:06.649Z,55.48
2018-10-21T21:28:34.523Z,54.86
2018-10-21T21:33:34.465Z,55.24
2018-10-21T21:36:06.404Z,55.58
2018-10-21T21:38:33.315Z,56.04
2018-10-21T21:41:00.749Z,55.70
2018-10-21T21:43:28.709Z,56.40
2018-10-21T21:48:31.573Z,55.77
2018-10-21T21:50:59.004Z,56.57
2018-10-21T21:53:26.451Z,56.94
2018-10-21T21:55:53.967Z,56.62
2018-10-21T21:58:24.441Z,56.28
2018-10-21T22:00:52.445Z,55.51
2018-10-21T22:06:09.886Z,55.53
2018-10-21T22:08:37.967Z,55.20
2018-10-21T22:11:06.679Z,54.85
2018-10-21T22:13:34.517Z,55.18
2018-10-21T22:18:33.634Z,55.22
2018-10-21T22:21:00.597Z,55.62
2018-10-21T22:23:29.334Z,55.31
2018-10-21T22:25:56.795Z,56.44
2018-10-21T22:28:24.824Z,56.72
2018-10-21T22:30:51.752Z,55.95
2018-10-21T22:33:18.780Z,55.45
2018-10-21T22:35:47.158Z,55.43
2018-10-21T22:38:19.473Z,55.14
2018-10-21T22:40:46.639Z,54.90
2018-10-21T22:43:15.485Z,55.41
2018-10-21T22:45:42.679Z,55.66
2018-10-21T22:48:11.610Z,56.00
2018-10-21T22:50:40.320Z,55.11
2018-10-21T22:53:08.200Z,55.74
2018-10-21T22:55:35.437Z,55.34
2018-10-21T22:58:03.169Z,56.05
2018-10-21T23:00:31.482Z,55.24
2018-10-21T23:02:59.150Z,54.32
2018-10-21T23:05:27.169Z,54.86
2018-10-21T23:07:56.273Z,55.36
2018-10-21T23:10:24.627Z,55.20
2018-10-21T23:12:53.370Z,56.20
2018-10-21T23:15:21.518Z,56.31
2018-10-21T23:17:49.481Z,56.28
2018-10-21T23:20:18.579Z,56.40
2018-10-21T23:22:45.985Z,56.20
2018-10-21T23:25:13.495Z,55.95
2018-10-21T23:27:40.275Z,55.46
2018-10-21T23:30:08.750Z,55.90
2018-10-21T23:32:38.516Z,54.89
2018-10-21T23:35:06.872Z,55.85
2018-10-21T23:37:35.121Z,57.45
2018-10-21T23:40:04.893Z,57.42
2018-10-21T23:42:33.083Z,57.35
2018-10-21T23:45:00.362Z,56.77
2018-10-21T23:47:27.878Z,56.05
2018-10-21T23:49:55.673Z,55.97
2018-10-21T23:52:24.060Z,55.10
2018-10-21T23:54:51.349Z,55.78
2018-10-21T23:57:17.850Z,56.63
2018-10-21T23:59:44.649Z,56.29
